sensor_id;sensor_type;location;lat;lon;timestamp;P1;durP1;ratioP1;P2;durP2;ratioP2
54995;SDS011;40893;47.146;9.126;2022-08-19T00:01:25;4.10;;;3.05;;
54995;SDS011;40893;47.146;9.126;2022-08-19T00:03:52;4.25;;;3.10;;
54995;SDS011;40893;47.146;9.126;2022-08-19T00:06:18;5.00;;;4.50;;
54995;SDS011;40893;47.146;9.126;2022-08-19T00:08:43;7.70;;;6.20;;
54995;SDS011;40893;47.146;9.126;2022-08-19T00:11:09;5.82;;;4.88;;
54995;SDS011;40893;47.146;9.126;2022-08-19T00:13:38;6.32;;;5.05;;
54995;SDS011;40893;47.146;9.126;2022-08-19T00:16:04;7.13;;;4.57;;
54995;SDS011;40893;47.146;9.126;2022-08-19T00:18:31;6.65;;;5.03;;
54995;SDS011;40893;47.146;9.126;2022-08-19T00:20:57;6.45;;;4.80;;
54995;SDS011;40893;47.146;9.126;2022-08-19T00:23:22;6.53;;;4.43;;
54995;SDS011;40893;47.146;9.126;2022-08-19T00:25:48;4.95;;;4.25;;
54995;SDS011;40893;47.146;9.126;2022-08-19T00:28:13;5.03;;;4.18;;
54995;SDS011;40893;47.146;9.126;2022-08-19T00:30:39;5.95;;;3.78;;
54995;SDS011;40893;47.146;9.126;2022-08-19T00:33:05;6.68;;;3.90;;
54995;SDS011;40893;47.146;9.126;2022-08-19T00:35:33;6.43;;;3.88;;
54995;SDS011;40893;47.146;9.126;2022-08-19T00:37:58;4.05;;;3.55;;
54995;SDS011;40893;47.146;9.126;2022-08-19T00:40:24;7.38;;;3.38;;
54995;SDS011;40893;47.146;9.126;2022-08-19T00:42:50;4.78;;;3.60;;
54995;SDS011;40893;47.146;9.126;2022-08-19T00:45:20;7.68;;;4.00;;
54995;SDS011;40893;47.146;9.126;2022-08-19T00:47:47;7.50;;;4.13;;
54995;SDS011;40893;47.146;9.126;2022-08-19T00:50:14;4.43;;;3.67;;
54995;SDS011;40893;47.146;9.126;2022-08-19T00:52:43;4.95;;;4.05;;
54995;SDS011;40893;47.146;9.126;2022-08-19T00:55:15;6.50;;;4.68;;
54995;SDS011;40893;47.146;9.126;2022-08-19T00:57:46;5.63;;;4.30;;
54995;SDS011;40893;47.146;9.126;2022-08-19T01:00:17;4.50;;;4.10;;
54995;SDS011;40893;47.146;9.126;2022-08-19T01:02:44;6.78;;;4.45;;
54995;SDS011;40893;47.146;9.126;2022-08-19T01:05:14;6.13;;;4.97;;
54995;SDS011;40893;47.146;9.126;2022-08-19T01:07:43;7.28;;;4.30;;
54995;SDS011;40893;47.146;9.126;2022-08-19T01:10:11;6.63;;;4.90;;
54995;SDS011;40893;47.146;9.126;2022-08-19T01:12:39;5.35;;;4.82;;
54995;SDS011;40893;47.146;9.126;2022-08-19T01:15:06;7.75;;;4.72;;
54995;SDS011;40893;47.146;9.126;2022-08-19T01:17:34;29.63;;;6.88;;
54995;SDS011;40893;47.146;9.126;2022-08-19T01:20:03;11.45;;;6.07;;
54995;SDS011;40893;47.146;9.126;2022-08-19T01:22:34;47.88;;;8.32;;
54995;SDS011;40893;47.146;9.126;2022-08-19T01:25:07;7.13;;;5.97;;
54995;SDS011;40893;47.146;9.126;2022-08-19T01:27:37;7.90;;;5.85;;
54995;SDS011;40893;47.146;9.126;2022-08-19T01:30:09;7.45;;;5.85;;
54995;SDS011;40893;47.146;9.126;2022-08-19T01:33:01;5.82;;;5.32;;
54995;SDS011;40893;47.146;9.126;2022-08-19T01:35:30;5.82;;;4.70;;
54995;SDS011;40893;47.146;9.126;2022-08-19T01:38:01;6.20;;;4.93;;
54995;SDS011;40893;47.146;9.126;2022-08-19T01:40:33;6.03;;;5.15;;
54995;SDS011;40893;47.146;9.126;2022-08-19T01:43:00;6.55;;;5.40;;
54995;SDS011;40893;47.146;9.126;2022-08-19T01:45:28;6.57;;;5.47;;
54995;SDS011;40893;47.146;9.126;2022-08-19T01:47:55;6.45;;;5.85;;
54995;SDS011;40893;47.146;9.126;2022-08-19T01:50:22;8.20;;;6.80;;
54995;SDS011;40893;47.146;9.126;2022-08-19T01:52:47;6.70;;;6.00;;
54995;SDS011;40893;47.146;9.126;2022-08-19T01:55:17;6.75;;;5.97;;
54995;SDS011;40893;47.146;9.126;2022-08-19T01:57:49;5.55;;;4.97;;
54995;SDS011;40893;47.146;9.126;2022-08-19T02:00:20;8.45;;;5.20;;
54995;SDS011;40893;47.146;9.126;2022-08-19T02:02:48;6.35;;;4.97;;
54995;SDS011;40893;47.146;9.126;2022-08-19T02:05:14;5.88;;;5.25;;
54995;SDS011;40893;47.146;9.126;2022-08-19T02:07:41;10.43;;;5.10;;
54995;SDS011;40893;47.146;9.126;2022-08-19T02:10:08;7.47;;;5.03;;
54995;SDS011;40893;47.146;9.126;2022-08-19T02:12:36;5.75;;;5.05;;
54995;SDS011;40893;47.146;9.126;2022-08-19T02:15:02;5.07;;;4.40;;
54995;SDS011;40893;47.146;9.126;2022-08-19T02:17:29;6.20;;;4.70;;
54995;SDS011;40893;47.146;9.126;2022-08-19T02:19:55;5.03;;;3.95;;
54995;SDS011;40893;47.146;9.126;2022-08-19T02:22:21;9.60;;;4.45;;
54995;SDS011;40893;47.146;9.126;2022-08-19T02:24:47;4.07;;;3.60;;
54995;SDS011;40893;47.146;9.126;2022-08-19T02:27:13;7.30;;;4.25;;
54995;SDS011;40893;47.146;9.126;2022-08-19T02:29:39;4.30;;;3.90;;
54995;SDS011;40893;47.146;9.126;2022-08-19T02:32:06;5.85;;;4.00;;
54995;SDS011;40893;47.146;9.126;2022-08-19T02:34:32;5.50;;;3.80;;
54995;SDS011;40893;47.146;9.126;2022-08-19T02:36:58;4.90;;;4.40;;
54995;SDS011;40893;47.146;9.126;2022-08-19T02:39:23;4.13;;;3.55;;
54995;SDS011;40893;47.146;9.126;2022-08-19T02:41:49;4.65;;;3.80;;
54995;SDS011;40893;47.146;9.126;2022-08-19T02:44:15;4.32;;;3.78;;
54995;SDS011;40893;47.146;9.126;2022-08-19T02:46:41;4.20;;;3.65;;
54995;SDS011;40893;47.146;9.126;2022-08-19T02:49:08;5.25;;;3.55;;
54995;SDS011;40893;47.146;9.126;2022-08-19T02:51:38;3.75;;;3.35;;
54995;SDS011;40893;47.146;9.126;2022-08-19T02:54:06;4.43;;;3.50;;
54995;SDS011;40893;47.146;9.126;2022-08-19T02:56:34;4.65;;;3.35;;
54995;SDS011;40893;47.146;9.126;2022-08-19T02:59:01;5.82;;;3.85;;
54995;SDS011;40893;47.146;9.126;2022-08-19T03:01:28;3.58;;;3.13;;
54995;SDS011;40893;47.146;9.126;2022-08-19T03:03:57;6.88;;;3.20;;
54995;SDS011;40893;47.146;9.126;2022-08-19T03:06:24;3.72;;;3.13;;
54995;SDS011;40893;47.146;9.126;2022-08-19T03:08:50;4.38;;;3.85;;
54995;SDS011;40893;47.146;9.126;2022-08-19T03:11:24;2.20;;;2.00;;
54995;SDS011;40893;47.146;9.126;2022-08-19T03:13:52;2.05;;;1.95;;
54995;SDS011;40893;47.146;9.126;2022-08-19T03:16:20;1.98;;;1.88;;
54995;SDS011;40893;47.146;9.126;2022-08-19T03:18:47;2.28;;;2.08;;
54995;SDS011;40893;47.146;9.126;2022-08-19T03:21:20;2.00;;;1.90;;
54995;SDS011;40893;47.146;9.126;2022-08-19T03:23:50;3.35;;;2.60;;
54995;SDS011;40893;47.146;9.126;2022-08-19T03:26:19;3.15;;;2.88;;
54995;SDS011;40893;47.146;9.126;2022-08-19T03:28:45;5.95;;;3.40;;
54995;SDS011;40893;47.146;9.126;2022-08-19T03:31:15;3.70;;;3.35;;
54995;SDS011;40893;47.146;9.126;2022-08-19T03:33:43;3.67;;;3.38;;
54995;SDS011;40893;47.146;9.126;2022-08-19T03:38:37;3.75;;;3.13;;
54995;SDS011;40893;47.146;9.126;2022-08-19T03:41:06;2.80;;;2.60;;
54995;SDS011;40893;47.146;9.126;2022-08-19T03:43:34;2.55;;;2.35;;
54995;SDS011;40893;47.146;9.126;2022-08-19T03:46:05;2.67;;;2.47;;
54995;SDS011;40893;47.146;9.126;2022-08-19T03:48:36;2.40;;;2.20;;
54995;SDS011;40893;47.146;9.126;2022-08-19T03:51:04;3.17;;;2.40;;
54995;SDS011;40893;47.146;9.126;2022-08-19T03:53:31;2.20;;;2.00;;
54995;SDS011;40893;47.146;9.126;2022-08-19T03:55:58;2.22;;;1.77;;
54995;SDS011;40893;47.146;9.126;2022-08-19T03:58:27;1.77;;;1.67;;
54995;SDS011;40893;47.146;9.126;2022-08-19T04:00:55;3.25;;;2.10;;
54995;SDS011;40893;47.146;9.126;2022-08-19T04:03:22;2.03;;;1.90;;
54995;SDS011;40893;47.146;9.126;2022-08-19T04:05:49;2.22;;;2.03;;
54995;SDS011;40893;47.146;9.126;2022-08-19T04:08:15;2.38;;;1.95;;
54995;SDS011;40893;47.146;9.126;2022-08-19T04:10:45;3.05;;;2.17;;
54995;SDS011;40893;47.146;9.126;2022-08-19T04:13:11;2.20;;;2.00;;
54995;SDS011;40893;47.146;9.126;2022-08-19T04:15:41;3.95;;;2.40;;
54995;SDS011;40893;47.146;9.126;2022-08-19T04:18:08;1.80;;;1.70;;
54995;SDS011;40893;47.146;9.126;2022-08-19T04:20:45;2.08;;;1.95;;
54995;SDS011;40893;47.146;9.126;2022-08-19T04:23:13;2.13;;;1.92;;
54995;SDS011;40893;47.146;9.126;2022-08-19T04:25:40;4.47;;;2.47;;
54995;SDS011;40893;47.146;9.126;2022-08-19T04:28:08;3.80;;;2.42;;
54995;SDS011;40893;47.146;9.126;2022-08-19T04:30:39;2.47;;;2.22;;
54995;SDS011;40893;47.146;9.126;2022-08-19T04:33:05;2.40;;;2.20;;
54995;SDS011;40893;47.146;9.126;2022-08-19T04:35:35;4.80;;;2.00;;
54995;SDS011;40893;47.146;9.126;2022-08-19T04:38:02;3.88;;;1.98;;
54995;SDS011;40893;47.146;9.126;2022-08-19T04:40:28;2.58;;;1.90;;
54995;SDS011;40893;47.146;9.126;2022-08-19T04:43:12;4.63;;;1.90;;
54995;SDS011;40893;47.146;9.126;2022-08-19T04:45:40;2.03;;;1.80;;
54995;SDS011;40893;47.146;9.126;2022-08-19T04:48:08;3.03;;;2.72;;
54995;SDS011;40893;47.146;9.126;2022-08-19T04:50:33;2.38;;;2.17;;
54995;SDS011;40893;47.146;9.126;2022-08-19T04:52:59;3.25;;;2.95;;
54995;SDS011;40893;47.146;9.126;2022-08-19T04:55:24;7.15;;;3.00;;
54995;SDS011;40893;47.146;9.126;2022-08-19T04:57:50;4.57;;;3.10;;
54995;SDS011;40893;47.146;9.126;2022-08-19T05:00:16;4.00;;;3.05;;
54995;SDS011;40893;47.146;9.126;2022-08-19T05:02:42;7.10;;;4.03;;
54995;SDS011;40893;47.146;9.126;2022-08-19T05:05:07;5.68;;;4.38;;
54995;SDS011;40893;47.146;9.126;2022-08-19T05:07:33;6.47;;;4.55;;
54995;SDS011;40893;47.146;9.126;2022-08-19T05:09:59;3.92;;;3.50;;
54995;SDS011;40893;47.146;9.126;2022-08-19T05:12:25;3.70;;;3.40;;
54995;SDS011;40893;47.146;9.126;2022-08-19T05:14:52;3.60;;;3.30;;
54995;SDS011;40893;47.146;9.126;2022-08-19T05:17:19;4.00;;;3.60;;
54995;SDS011;40893;47.146;9.126;2022-08-19T05:19:44;5.55;;;3.53;;
54995;SDS011;40893;47.146;9.126;2022-08-19T05:22:28;5.22;;;3.38;;
54995;SDS011;40893;47.146;9.126;2022-08-19T05:24:57;4.03;;;3.42;;
54995;SDS011;40893;47.146;9.126;2022-08-19T05:27:23;4.32;;;3.92;;
54995;SDS011;40893;47.146;9.126;2022-08-19T05:29:49;4.80;;;4.20;;
54995;SDS011;40893;47.146;9.126;2022-08-19T05:32:14;4.22;;;3.83;;
54995;SDS011;40893;47.146;9.126;2022-08-19T05:34:40;4.30;;;3.90;;
54995;SDS011;40893;47.146;9.126;2022-08-19T05:37:06;5.07;;;4.57;;
54995;SDS011;40893;47.146;9.126;2022-08-19T05:39:34;6.63;;;4.97;;
54995;SDS011;40893;47.146;9.126;2022-08-19T05:42:05;5.35;;;4.57;;
54995;SDS011;40893;47.146;9.126;2022-08-19T05:44:34;9.52;;;6.55;;
54995;SDS011;40893;47.146;9.126;2022-08-19T05:47:03;7.53;;;6.72;;
54995;SDS011;40893;47.146;9.126;2022-08-19T05:49:32;9.95;;;8.57;;
54995;SDS011;40893;47.146;9.126;2022-08-19T05:52:02;6.60;;;5.55;;
54995;SDS011;40893;47.146;9.126;2022-08-19T05:54:29;5.65;;;5.05;;
54995;SDS011;40893;47.146;9.126;2022-08-19T05:56:55;32.13;;;5.38;;
54995;SDS011;40893;47.146;9.126;2022-08-19T05:59:21;184.90;;;9.48;;
54995;SDS011;40893;47.146;9.126;2022-08-19T06:01:49;624.40;;;25.27;;
54995;SDS011;40893;47.146;9.126;2022-08-19T06:04:20;625.95;;;24.15;;
54995;SDS011;40893;47.146;9.126;2022-08-19T06:06:48;89.75;;;6.28;;
54995;SDS011;40893;47.146;9.126;2022-08-19T06:09:17;108.43;;;7.13;;
54995;SDS011;40893;47.146;9.126;2022-08-19T06:11:47;216.77;;;10.00;;
54995;SDS011;40893;47.146;9.126;2022-08-19T06:14:19;241.68;;;13.18;;
54995;SDS011;40893;47.146;9.126;2022-08-19T06:16:46;43.53;;;6.40;;
54995;SDS011;40893;47.146;9.126;2022-08-19T06:19:16;4.55;;;4.10;;
54995;SDS011;40893;47.146;9.126;2022-08-19T06:21:43;4.47;;;4.07;;
54995;SDS011;40893;47.146;9.126;2022-08-19T06:24:11;5.95;;;5.00;;
54995;SDS011;40893;47.146;9.126;2022-08-19T06:26:39;4.60;;;4.05;;
54995;SDS011;40893;47.146;9.126;2022-08-19T06:29:07;4.60;;;4.10;;
54995;SDS011;40893;47.146;9.126;2022-08-19T06:31:35;4.53;;;4.13;;
54995;SDS011;40893;47.146;9.126;2022-08-19T06:34:02;12.07;;;3.75;;
54995;SDS011;40893;47.146;9.126;2022-08-19T06:36:34;108.82;;;6.03;;
54995;SDS011;40893;47.146;9.126;2022-08-19T06:39:07;229.07;;;10.10;;
54995;SDS011;40893;47.146;9.126;2022-08-19T06:41:35;318.60;;;11.02;;
54995;SDS011;40893;47.146;9.126;2022-08-19T06:44:02;25.02;;;3.78;;
54995;SDS011;40893;47.146;9.126;2022-08-19T06:46:29;3.08;;;2.72;;
54995;SDS011;40893;47.146;9.126;2022-08-19T06:48:56;4.38;;;2.28;;
54995;SDS011;40893;47.146;9.126;2022-08-19T06:51:22;3.67;;;3.33;;
54995;SDS011;40893;47.146;9.126;2022-08-19T06:53:49;14.25;;;3.30;;
54995;SDS011;40893;47.146;9.126;2022-08-19T06:56:17;28.50;;;3.47;;
54995;SDS011;40893;47.146;9.126;2022-08-19T06:58:46;9.05;;;2.20;;
54995;SDS011;40893;47.146;9.126;2022-08-19T07:01:11;1.85;;;1.75;;
54995;SDS011;40893;47.146;9.126;2022-08-19T07:03:37;20.73;;;2.33;;
54995;SDS011;40893;47.146;9.126;2022-08-19T07:06:04;2.53;;;1.98;;
54995;SDS011;40893;47.146;9.126;2022-08-19T07:08:33;23.30;;;2.30;;
54995;SDS011;40893;47.146;9.126;2022-08-19T07:11:00;60.40;;;3.78;;
54995;SDS011;40893;47.146;9.126;2022-08-19T07:13:25;4.03;;;1.75;;
54995;SDS011;40893;47.146;9.126;2022-08-19T07:15:51;85.32;;;3.72;;
54995;SDS011;40893;47.146;9.126;2022-08-19T07:18:18;77.60;;;3.03;;
54995;SDS011;40893;47.146;9.126;2022-08-19T07:20:44;16.63;;;1.42;;
54995;SDS011;40893;47.146;9.126;2022-08-19T07:23:10;12.38;;;1.00;;
54995;SDS011;40893;47.146;9.126;2022-08-19T07:25:36;0.90;;;0.85;;
54995;SDS011;40893;47.146;9.126;2022-08-19T07:28:02;1.55;;;1.00;;
54995;SDS011;40893;47.146;9.126;2022-08-19T07:30:29;14.20;;;1.13;;
54995;SDS011;40893;47.146;9.126;2022-08-19T07:32:54;12.15;;;1.30;;
54995;SDS011;40893;47.146;9.126;2022-08-19T07:35:21;40.97;;;1.58;;
54995;SDS011;40893;47.146;9.126;2022-08-19T07:37:48;21.65;;;1.17;;
54995;SDS011;40893;47.146;9.126;2022-08-19T07:40:14;15.80;;;1.20;;
54995;SDS011;40893;47.146;9.126;2022-08-19T07:42:40;284.17;;;7.75;;
54995;SDS011;40893;47.146;9.126;2022-08-19T07:45:06;119.43;;;3.75;;
54995;SDS011;40893;47.146;9.126;2022-08-19T07:47:33;20.40;;;1.35;;
54995;SDS011;40893;47.146;9.126;2022-08-19T07:49:59;44.13;;;1.88;;
54995;SDS011;40893;47.146;9.126;2022-08-19T07:52:24;1.27;;;0.80;;
54995;SDS011;40893;47.146;9.126;2022-08-19T07:54:50;6.65;;;1.20;;
54995;SDS011;40893;47.146;9.126;2022-08-19T07:57:16;5.20;;;1.00;;
54995;SDS011;40893;47.146;9.126;2022-08-19T07:59:42;5.28;;;0.77;;
54995;SDS011;40893;47.146;9.126;2022-08-19T08:02:08;1.60;;;0.60;;
54995;SDS011;40893;47.146;9.126;2022-08-19T08:04:34;1.02;;;0.73;;
54995;SDS011;40893;47.146;9.126;2022-08-19T08:07:18;1.95;;;0.75;;
54995;SDS011;40893;47.146;9.126;2022-08-19T08:10:03;2.10;;;1.02;;
54995;SDS011;40893;47.146;9.126;2022-08-19T08:12:32;0.95;;;0.50;;
54995;SDS011;40893;47.146;9.126;2022-08-19T08:15:03;1.10;;;0.60;;
54995;SDS011;40893;47.146;9.126;2022-08-19T08:17:33;0.82;;;0.60;;
54995;SDS011;40893;47.146;9.126;2022-08-19T08:19:58;1.13;;;0.60;;
54995;SDS011;40893;47.146;9.126;2022-08-19T08:22:24;1.00;;;0.90;;
54995;SDS011;40893;47.146;9.126;2022-08-19T08:25:17;1.55;;;0.90;;
54995;SDS011;40893;47.146;9.126;2022-08-19T08:27:44;3.92;;;1.00;;
54995;SDS011;40893;47.146;9.126;2022-08-19T08:30:13;2.22;;;1.02;;
54995;SDS011;40893;47.146;9.126;2022-08-19T08:32:41;3.67;;;1.05;;
54995;SDS011;40893;47.146;9.126;2022-08-19T08:35:08;1.80;;;1.40;;
54995;SDS011;40893;47.146;9.126;2022-08-19T08:37:39;2.70;;;1.40;;
54995;SDS011;40893;47.146;9.126;2022-08-19T08:40:06;1.55;;;1.00;;
54995;SDS011;40893;47.146;9.126;2022-08-19T08:42:40;1.90;;;0.80;;
54995;SDS011;40893;47.146;9.126;2022-08-19T08:45:14;1.42;;;0.90;;
54995;SDS011;40893;47.146;9.126;2022-08-19T08:47:44;1.80;;;0.80;;
54995;SDS011;40893;47.146;9.126;2022-08-19T08:50:18;2.00;;;1.73;;
54995;SDS011;40893;47.146;9.126;2022-08-19T08:52:50;4.78;;;2.28;;
54995;SDS011;40893;47.146;9.126;2022-08-19T08:55:24;4.20;;;1.60;;
54995;SDS011;40893;47.146;9.126;2022-08-19T08:58:01;2.88;;;1.42;;
54995;SDS011;40893;47.146;9.126;2022-08-19T09:00:35;1.67;;;1.58;;
54995;SDS011;40893;47.146;9.126;2022-08-19T09:03:08;1.60;;;1.50;;
54995;SDS011;40893;47.146;9.126;2022-08-19T09:11:03;2.45;;;1.40;;
54995;SDS011;40893;47.146;9.126;2022-08-19T09:16:10;2.75;;;1.48;;
54995;SDS011;40893;47.146;9.126;2022-08-19T09:21:11;2.30;;;1.40;;
54995;SDS011;40893;47.146;9.126;2022-08-19T09:23:38;1.23;;;1.00;;
54995;SDS011;40893;47.146;9.126;2022-08-19T09:26:12;2.55;;;1.20;;
54995;SDS011;40893;47.146;9.126;2022-08-19T09:28:43;5.22;;;1.08;;
54995;SDS011;40893;47.146;9.126;2022-08-19T09:31:11;2.63;;;1.27;;
54995;SDS011;40893;47.146;9.126;2022-08-19T09:33:37;5.70;;;1.83;;
54995;SDS011;40893;47.146;9.126;2022-08-19T09:36:06;4.95;;;4.07;;
54995;SDS011;40893;47.146;9.126;2022-08-19T09:38:34;268.27;;;15.13;;
54995;SDS011;40893;47.146;9.126;2022-08-19T09:41:03;50.83;;;4.90;;
54995;SDS011;40893;47.146;9.126;2022-08-19T09:43:33;193.20;;;7.88;;
54995;SDS011;40893;47.146;9.126;2022-08-19T09:46:02;198.25;;;8.13;;
54995;SDS011;40893;47.146;9.126;2022-08-19T09:48:30;4.00;;;1.73;;
54995;SDS011;40893;47.146;9.126;2022-08-19T09:51:30;5.72;;;2.80;;
54995;SDS011;40893;47.146;9.126;2022-08-19T09:53:51;6.43;;;4.07;;
54995;SDS011;40893;47.146;9.126;2022-08-19T09:56:21;19.55;;;4.63;;
54995;SDS011;40893;47.146;9.126;2022-08-19T09:58:47;6.75;;;3.60;;
54995;SDS011;40893;47.146;9.126;2022-08-19T10:01:22;10.27;;;3.20;;
54995;SDS011;40893;47.146;9.126;2022-08-19T10:03:51;3.58;;;3.17;;
54995;SDS011;40893;47.146;9.126;2022-08-19T10:06:19;5.88;;;2.80;;
54995;SDS011;40893;47.146;9.126;2022-08-19T10:08:46;3.45;;;3.15;;
54995;SDS011;40893;47.146;9.126;2022-08-19T10:11:12;6.50;;;4.32;;
54995;SDS011;40893;47.146;9.126;2022-08-19T10:13:41;6.35;;;5.40;;
54995;SDS011;40893;47.146;9.126;2022-08-19T10:16:09;5.72;;;4.88;;
54995;SDS011;40893;47.146;9.126;2022-08-19T10:18:36;6.43;;;5.35;;
54995;SDS011;40893;47.146;9.126;2022-08-19T10:21:10;6.68;;;4.78;;
54995;SDS011;40893;47.146;9.126;2022-08-19T10:23:38;6.03;;;4.57;;
54995;SDS011;40893;47.146;9.126;2022-08-19T10:26:06;6.07;;;4.82;;
54995;SDS011;40893;47.146;9.126;2022-08-19T10:28:33;7.00;;;4.10;;
54995;SDS011;40893;47.146;9.126;2022-08-19T10:31:16;6.38;;;4.10;;
54995;SDS011;40893;47.146;9.126;2022-08-19T10:33:47;6.60;;;5.10;;
54995;SDS011;40893;47.146;9.126;2022-08-19T10:36:22;7.78;;;5.22;;
54995;SDS011;40893;47.146;9.126;2022-08-19T10:38:51;9.98;;;7.13;;
54995;SDS011;40893;47.146;9.126;2022-08-19T10:41:23;9.85;;;6.45;;
54995;SDS011;40893;47.146;9.126;2022-08-19T10:43:54;15.20;;;7.18;;
54995;SDS011;40893;47.146;9.126;2022-08-19T10:46:23;10.57;;;7.80;;
54995;SDS011;40893;47.146;9.126;2022-08-19T10:48:50;12.18;;;8.45;;
54995;SDS011;40893;47.146;9.126;2022-08-19T10:51:20;10.90;;;8.23;;
54995;SDS011;40893;47.146;9.126;2022-08-19T10:54:04;10.88;;;7.53;;
54995;SDS011;40893;47.146;9.126;2022-08-19T10:56:30;14.52;;;6.65;;
54995;SDS011;40893;47.146;9.126;2022-08-19T10:59:20;6.07;;;5.22;;
54995;SDS011;40893;47.146;9.126;2022-08-19T11:02:15;11.20;;;7.85;;
54995;SDS011;40893;47.146;9.126;2022-08-19T11:04:41;11.00;;;7.57;;
54995;SDS011;40893;47.146;9.126;2022-08-19T11:07:07;12.20;;;6.80;;
54995;SDS011;40893;47.146;9.126;2022-08-19T11:09:39;8.30;;;6.10;;
54995;SDS011;40893;47.146;9.126;2022-08-19T11:12:06;6.43;;;4.50;;
54995;SDS011;40893;47.146;9.126;2022-08-19T11:14:33;5.88;;;3.95;;
54995;SDS011;40893;47.146;9.126;2022-08-19T11:16:58;6.65;;;4.80;;
54995;SDS011;40893;47.146;9.126;2022-08-19T11:19:24;5.78;;;5.13;;
54995;SDS011;40893;47.146;9.126;2022-08-19T11:21:50;4.32;;;3.92;;
54995;SDS011;40893;47.146;9.126;2022-08-19T11:24:22;6.80;;;4.40;;
54995;SDS011;40893;47.146;9.126;2022-08-19T11:26:50;4.70;;;4.22;;
54995;SDS011;40893;47.146;9.126;2022-08-19T11:29:18;5.53;;;4.45;;
54995;SDS011;40893;47.146;9.126;2022-08-19T11:31:50;4.50;;;4.10;;
54995;SDS011;40893;47.146;9.126;2022-08-19T11:34:18;6.18;;;5.18;;
54995;SDS011;40893;47.146;9.126;2022-08-19T11:36:46;7.72;;;5.85;;
54995;SDS011;40893;47.146;9.126;2022-08-19T11:39:14;7.20;;;5.68;;
54995;SDS011;40893;47.146;9.126;2022-08-19T11:41:41;8.07;;;5.60;;
54995;SDS011;40893;47.146;9.126;2022-08-19T11:44:07;9.35;;;8.15;;
54995;SDS011;40893;47.146;9.126;2022-08-19T11:46:33;10.48;;;8.15;;
54995;SDS011;40893;47.146;9.126;2022-08-19T11:49:02;12.75;;;8.07;;
54995;SDS011;40893;47.146;9.126;2022-08-19T11:51:34;10.45;;;8.00;;
54995;SDS011;40893;47.146;9.126;2022-08-19T11:54:00;14.40;;;9.02;;
54995;SDS011;40893;47.146;9.126;2022-08-19T11:56:29;11.88;;;7.60;;
54995;SDS011;40893;47.146;9.126;2022-08-19T11:58:55;7.72;;;5.90;;
54995;SDS011;40893;47.146;9.126;2022-08-19T12:01:22;6.10;;;4.15;;
54995;SDS011;40893;47.146;9.126;2022-08-19T12:03:50;6.53;;;4.20;;
54995;SDS011;40893;47.146;9.126;2022-08-19T12:06:18;6.18;;;4.32;;
54995;SDS011;40893;47.146;9.126;2022-08-19T12:08:49;9.82;;;3.70;;
54995;SDS011;40893;47.146;9.126;2022-08-19T12:11:14;10.52;;;8.80;;
54995;SDS011;40893;47.146;9.126;2022-08-19T12:13:41;38.47;;;8.38;;
54995;SDS011;40893;47.146;9.126;2022-08-19T12:16:19;27.10;;;10.30;;
54995;SDS011;40893;47.146;9.126;2022-08-19T12:18:50;63.30;;;11.70;;
54995;SDS011;40893;47.146;9.126;2022-08-19T12:21:25;75.97;;;11.77;;
54995;SDS011;40893;47.146;9.126;2022-08-19T12:23:54;11.43;;;8.70;;
54995;SDS011;40893;47.146;9.126;2022-08-19T12:26:25;10.30;;;7.90;;
54995;SDS011;40893;47.146;9.126;2022-08-19T12:28:59;10.52;;;7.60;;
54995;SDS011;40893;47.146;9.126;2022-08-19T12:31:59;21.08;;;15.90;;
54995;SDS011;40893;47.146;9.126;2022-08-19T12:34:29;17.85;;;13.50;;
54995;SDS011;40893;47.146;9.126;2022-08-19T12:36:58;430.98;;;34.35;;
54995;SDS011;40893;47.146;9.126;2022-08-19T12:40:11;29.05;;;20.08;;
54995;SDS011;40893;47.146;9.126;2022-08-19T12:42:43;22.92;;;16.90;;
54995;SDS011;40893;47.146;9.126;2022-08-19T12:45:10;16.83;;;12.57;;
54995;SDS011;40893;47.146;9.126;2022-08-19T12:47:37;17.95;;;13.65;;
54995;SDS011;40893;47.146;9.126;2022-08-19T12:50:03;110.28;;;23.13;;
54995;SDS011;40893;47.146;9.126;2022-08-19T12:52:31;24.55;;;16.90;;
54995;SDS011;40893;47.146;9.126;2022-08-19T12:54:57;25.25;;;17.98;;
54995;SDS011;40893;47.146;9.126;2022-08-19T12:57:24;25.60;;;19.48;;
54995;SDS011;40893;47.146;9.126;2022-08-19T13:00:05;34.05;;;22.75;;
54995;SDS011;40893;47.146;9.126;2022-08-19T13:02:45;27.65;;;17.63;;
54995;SDS011;40893;47.146;9.126;2022-08-19T13:05:15;17.77;;;13.88;;
54995;SDS011;40893;47.146;9.126;2022-08-19T13:07:45;16.05;;;11.93;;
54995;SDS011;40893;47.146;9.126;2022-08-19T13:10:11;12.88;;;9.45;;
54995;SDS011;40893;47.146;9.126;2022-08-19T13:12:41;9.48;;;7.60;;
54995;SDS011;40893;47.146;9.126;2022-08-19T13:15:08;6.60;;;5.90;;
54995;SDS011;40893;47.146;9.126;2022-08-19T13:17:34;6.35;;;5.18;;
54995;SDS011;40893;47.146;9.126;2022-08-19T13:20:00;7.72;;;6.38;;
54995;SDS011;40893;47.146;9.126;2022-08-19T13:22:32;13.30;;;10.57;;
54995;SDS011;40893;47.146;9.126;2022-08-19T13:24:58;21.25;;;16.45;;
54995;SDS011;40893;47.146;9.126;2022-08-19T13:27:23;31.52;;;21.40;;
54995;SDS011;40893;47.146;9.126;2022-08-19T13:29:49;30.42;;;22.52;;
54995;SDS011;40893;47.146;9.126;2022-08-19T13:32:33;31.65;;;23.35;;
54995;SDS011;40893;47.146;9.126;2022-08-19T13:35:17;26.38;;;18.92;;
54995;SDS011;40893;47.146;9.126;2022-08-19T13:37:44;29.73;;;21.75;;
54995;SDS011;40893;47.146;9.126;2022-08-19T13:40:16;27.60;;;21.00;;
54995;SDS011;40893;47.146;9.126;2022-08-19T13:42:44;30.55;;;22.10;;
54995;SDS011;40893;47.146;9.126;2022-08-19T13:45:12;31.58;;;21.98;;
54995;SDS011;40893;47.146;9.126;2022-08-19T13:47:39;32.47;;;23.52;;
54995;SDS011;40893;47.146;9.126;2022-08-19T13:50:08;30.23;;;22.73;;
54995;SDS011;40893;47.146;9.126;2022-08-19T13:52:36;28.83;;;21.73;;
54995;SDS011;40893;47.146;9.126;2022-08-19T13:55:02;25.27;;;19.85;;
54995;SDS011;40893;47.146;9.126;2022-08-19T13:57:29;31.08;;;22.45;;
54995;SDS011;40893;47.146;9.126;2022-08-19T13:59:55;24.58;;;18.60;;
54995;SDS011;40893;47.146;9.126;2022-08-19T14:02:22;24.55;;;18.70;;
54995;SDS011;40893;47.146;9.126;2022-08-19T14:04:47;25.92;;;19.45;;
54995;SDS011;40893;47.146;9.126;2022-08-19T14:07:13;129.73;;;22.77;;
54995;SDS011;40893;47.146;9.126;2022-08-19T14:09:39;22.52;;;17.92;;
54995;SDS011;40893;47.146;9.126;2022-08-19T14:12:05;27.63;;;20.38;;
54995;SDS011;40893;47.146;9.126;2022-08-19T14:14:32;28.65;;;20.92;;
54995;SDS011;40893;47.146;9.126;2022-08-19T14:17:04;21.83;;;18.10;;
54995;SDS011;40893;47.146;9.126;2022-08-19T14:19:31;32.38;;;23.40;;
54995;SDS011;40893;47.146;9.126;2022-08-19T14:21:57;25.35;;;19.60;;
54995;SDS011;40893;47.146;9.126;2022-08-19T14:24:23;29.90;;;21.67;;
54995;SDS011;40893;47.146;9.126;2022-08-19T14:26:48;32.28;;;22.80;;
54995;SDS011;40893;47.146;9.126;2022-08-19T14:29:14;26.00;;;20.13;;
54995;SDS011;40893;47.146;9.126;2022-08-19T14:31:39;29.23;;;21.08;;
54995;SDS011;40893;47.146;9.126;2022-08-19T14:34:05;27.35;;;21.55;;
54995;SDS011;40893;47.146;9.126;2022-08-19T14:36:31;33.70;;;22.40;;
54995;SDS011;40893;47.146;9.126;2022-08-19T14:38:59;25.40;;;18.90;;
54995;SDS011;40893;47.146;9.126;2022-08-19T14:41:25;25.90;;;19.38;;
54995;SDS011;40893;47.146;9.126;2022-08-19T14:43:53;24.52;;;17.60;;
54995;SDS011;40893;47.146;9.126;2022-08-19T14:46:20;33.80;;;25.17;;
54995;SDS011;40893;47.146;9.126;2022-08-19T14:48:47;27.27;;;21.85;;
54995;SDS011;40893;47.146;9.126;2022-08-19T14:51:14;25.85;;;20.95;;
54995;SDS011;40893;47.146;9.126;2022-08-19T14:53:40;23.67;;;19.17;;
54995;SDS011;40893;47.146;9.126;2022-08-19T14:56:10;26.33;;;20.70;;
54995;SDS011;40893;47.146;9.126;2022-08-19T14:58:38;27.10;;;19.60;;
54995;SDS011;40893;47.146;9.126;2022-08-19T15:01:06;21.90;;;18.25;;
54995;SDS011;40893;47.146;9.126;2022-08-19T15:03:32;28.25;;;20.73;;